View Larger Map

Homestead Miami Speedway Road Course B

First Race:Mar 08, 2010
Last Race:May 14, 2024

Top Qualifying Times Races

Top 5 qualifying times by car
CarDateLap TimeLap
MPH
Driver
ARCA Menards Chevrolet Impala
May 14, 2024 1:18.6204 105.316 Zac Fuller
May 14, 2024 1:18.8545 105.004 Owen Mayes
May 14, 2024 1:19.4938 104.159 Christian Loschen
May 14, 2024 1:19.8176 103.737 Ben Dunn
May 14, 2024 1:21.0829 102.118 Matt Donnelly
Aston Martin Vantage GT4
May 17, 2023 1:22.317 100.587 Joshua Rutherford
May 17, 2023 1:22.317 100.587 Joshua Rutherford
Feb 11, 2024 1:23.9875 98.586 Jordan Taylor
Feb 11, 2024 1:24.3588 98.152 Dr. Doug Stein
Feb 11, 2024 1:26.3411 95.899 Kenny Wallace
Audi 90 GTO
Mar 26, 2022 1:13.100 113.269 Jouko Leskela
Mar 26, 2022 1:13.560 112.561 Philip Lake
Mar 26, 2022 1:13.735 112.294 Reid Miller
Mar 26, 2022 1:13.740 112.286 Alex Millward
Mar 26, 2022 1:13.939 111.984 Nicholas Mukanos
Audi R8 LMS EVO II GT3
Feb 5, 2024 1:15.7082 109.367 Michael Overstreet
Feb 5, 2024 1:16.5458 108.171 Andrew Alt
Feb 5, 2024 1:16.6054 108.086 Patrick Koro
Audi RS 3 LMS TCR
Mar 9, 2020 1:23.338 99.354 Chad Holmes
Mar 9, 2020 1:23.338 99.354 Chad Holmes
Mar 9, 2020 1:23.834 98.767 Patrick Lindsey
Mar 9, 2020 1:23.834 98.767 Patrick Lindsey
Mar 9, 2020 1:23.867 98.728 Kevan Bingel2
BMW M4 GT3
Oct 5, 2023 1:15.3132 109.941 Louis Lockshine
Feb 26, 2022 1:16.047 108.880 Eric Burghdoff
Jan 10, 2024 1:17.6771 106.595 Alex Ripstein
BMW M4 GT4
May 17, 2023 1:21.018 102.200 Ryan Flanagan
May 17, 2023 1:21.018 102.200 Ryan Flanagan
May 17, 2023 1:21.149 102.035 Jarrell Williams
May 17, 2023 1:21.149 102.035 Jarrell Williams
May 17, 2023 1:21.301 101.844 Kenneth Estep
BMW M8 GTE
Jan 3, 2024 1:12.6072 114.038 Alex Jensen2
Jan 3, 2024 1:12.7398 113.830 Dylan Meyer
Jan 3, 2024 1:13.4009 112.805 Szymon Buhajczuk
Dec 13, 2021 1:13.796 112.201 Jory Fleischauer
Jan 3, 2024 1:13.8894 112.059 Joe Albanese
Cadillac CTS-V Racecar
May 6, 2015 1:17.296 107.121 Bob English
Apr 1, 2015 1:17.393 106.986 Bob English
Aug 14, 2012 1:19.295 104.420 Randy Hughes
Aug 14, 2012 1:20.384 103.006 Jody Suchard
Aug 14, 2012 1:20.726 102.569 Billy Howard
Chevrolet Corvette C6.R GT1
Oct 24, 2010 1:13.281 112.990 Sascha Raabe
Sep 11, 2021 1:13.387 112.827 DJ Weeks
Mar 24, 2018 1:13.860 112.104 Jeramie Horn
Mar 24, 2018 1:14.206 111.581 Simon Thornes
Mar 24, 2018 1:14.583 111.017 Charles Smith4
Chevrolet Corvette C7 Daytona Prototype
Feb 11, 2019 1:09.997 118.291 John Eckert
Feb 11, 2019 1:09.997 118.291 John Eckert
Feb 11, 2019 1:10.292 117.794 Chad Holmes
Feb 11, 2019 1:10.292 117.794 Chad Holmes
Feb 11, 2019 1:10.675 117.156 Andrew Hess
Chevrolet Corvette C8.R GTE
Jan 3, 2024 1:11.6243 115.603 Stephen Lichota
Jan 3, 2024 1:12.1284 114.795 Lucas Wallace
Jan 3, 2024 1:12.8224 113.701 Justin Wiley
Dec 13, 2021 1:12.995 113.432 Chad Holmes
Jan 3, 2024 1:13.6572 112.413 Brandon Kruchin
Dallara IR18
Mar 22, 2022 1:03.132 131.154 Alexander van de Sandt
Mar 22, 2022 1:03.299 130.808 Michael A O'Brien
Mar 22, 2022 1:03.306 130.793 Nate Siefker
Mar 22, 2022 1:03.320 130.764 Nicholas Johnston
Mar 22, 2022 1:03.341 130.721 Christopher Hill4
Dallara P217
Dec 15, 2020 1:07.053 123.484 Kyle Nadeau
Dec 13, 2021 1:07.090 123.416 Mike Aurilio
Dec 15, 2020 1:07.483 122.698 Jeramie Horn
Dec 13, 2021 1:07.915 121.917 Aaron Bean
Dec 13, 2021 1:08.849 120.263 Kyle Pokrefky
FIA F4
Nov 30, 2023 1:17.8197 106.400 Marcus Byfeldt
Nov 30, 2023 1:17.8197 106.400 Marcus Byfeldt
Nov 30, 2023 1:17.8197 106.400 Marcus Byfeldt
Nov 30, 2023 1:17.8723 106.328 Melvin Åkesson
Nov 30, 2023 1:17.8723 106.328 Melvin Åkesson
Ferrari 296 GT3
Oct 5, 2023 1:16.0158 108.925 Frank Johnson
Jan 10, 2024 1:16.0823 108.830 Kyle Pokrefky
Jan 10, 2024 1:16.586 108.114 Chris Burk
Jan 10, 2024 1:16.9218 107.642 Drew Glover
Jan 10, 2024 1:17.258 107.173 Seth Wolfmeyer
Ferrari 488 GT3 Evo 2020
Feb 26, 2022 1:16.676 107.987 Donny Staubitz
Feb 12, 2022 1:16.9827 107.557 Sean Mcstay
Feb 12, 2022 1:16.9827 107.557 Sean Mcstay
Ferrari 488 GTE
May 19, 2023 1:13.0137 113.403 Curtis Velichka
Feb 11, 2019 1:14.173 111.631 Josh Van Cleef
Feb 11, 2019 1:14.173 111.631 Josh Van Cleef
Feb 11, 2019 1:14.194 111.599 Tyler Tucker
Feb 11, 2019 1:14.194 111.599 Tyler Tucker
Ford GT GT2
Dec 2, 2013 1:14.790 110.710 Emil Henriksson
Sep 11, 2021 1:15.055 110.319 Carlos Acosta
Dec 2, 2013 1:15.174 110.144 Klaus Rachbauer
Dec 2, 2013 1:15.403 109.810 Jacob Fredriksson
Dec 2, 2013 1:15.550 109.596 Ronnie Ã…kesson
Ford GT GT3
Nov 13, 2017 1:12.336 114.466 Tamy Accioly
Nov 13, 2017 1:12.437 114.306 Rodrigo Baronio
Nov 13, 2017 1:13.100 113.269 Djefferson Ramos
Nov 13, 2017 1:13.294 112.970 Rodolfo Hessel
Nov 13, 2017 1:13.428 112.764 Rafael Balbisan
Ford GTE
Jan 3, 2024 1:12.4847 114.231 Ed Smith2
Feb 11, 2019 1:14.280 111.470 Eric Hite
Feb 11, 2019 1:14.280 111.470 Eric Hite
Feb 11, 2019 1:15.597 109.528 Alex Ripstein
Feb 11, 2019 1:15.597 109.528 Alex Ripstein
Ford Mustang FR500S
Oct 22, 2018 1:25.973 96.309 Eero Nomm
Oct 22, 2018 1:25.974 96.308 Dexter Castro
Oct 22, 2018 1:26.148 96.114 Stephen Thomas2
Oct 22, 2018 1:26.173 96.086 Kevin C Ford
May 4, 2015 1:26.323 95.919 Kevin C Ford
Global Mazda MX-5 Cup
Oct 22, 2018 1:30.753 91.237 Mike Dam
Oct 22, 2018 1:30.881 91.108 Robert R Hartley
Oct 22, 2018 1:31.147 90.842 Daniel R Bristow
Oct 22, 2018 1:31.211 90.779 Travis Schwenke
Oct 22, 2018 1:31.243 90.747 Pasquale Iannucci
HPD ARX-01c
Dec 18, 2021 1:07.702 122.301 Daniel Beauchamp
Sep 11, 2021 1:07.723 122.263 Daniel Beauchamp
Sep 11, 2021 1:08.243 121.331 Nick Stein
Sep 11, 2021 1:08.580 120.735 Kai Demorest
Sep 11, 2021 1:08.659 120.596 Nick Terrell
Hyundai Elantra N TCR
Feb 12, 2022 1:24.7475 97.702 Ben Wolfson
Feb 12, 2022 1:24.7475 97.702 Ben Wolfson
Feb 12, 2022 1:25.0261 97.382 Jason Menda
Feb 12, 2022 1:25.0261 97.382 Jason Menda
Feb 12, 2022 1:26.4253 95.805 Ryan Senneker
Kia Optima
Jun 20, 2020 1:21.655 101.402 Selin M Rollan
Jun 20, 2020 1:21.865 101.142 Felix Borodaty
Jun 19, 2020 1:22.514 100.347 Selin M Rollan
Jun 20, 2020 1:22.759 100.050 Andrew Benagh
Jun 19, 2020 1:23.186 99.536 Tony Roma
Lamborghini Huracán GT3 EVO
Oct 5, 2023 1:15.2706 110.003 Derek Wynn
Feb 26, 2022 1:15.575 109.560 Nick Dicesare2
Aug 13, 2021 1:15.603 109.519 Finley Fitzsimmons
Feb 12, 2022 1:15.6068 109.514 Ben Wolfson
Feb 12, 2022 1:15.6068 109.514 Ben Wolfson
Late Model Stock
Jun 11, 2023 1:21.045 102.165 Steve Singer
Jun 11, 2023 1:21.053 102.155 Kevin McCann
Jun 11, 2023 1:21.231 101.932 Brian McCann
Jun 11, 2023 1:21.429 101.684 Mark Thomas12
Jun 11, 2023 1:21.775 101.253 Brian Rose2
Ligier JS P320
Nov 18, 2023 1:17.437 106.926 Justin Galloway
Lotus 79
Mar 8, 2018 1:08.557 120.775 Ryan Otis
Mar 8, 2018 1:08.805 120.340 Justin Weaver
Mar 8, 2018 1:08.965 120.061 Adam Blocker
Mar 8, 2018 1:09.079 119.863 Brian Yaczik
Mar 8, 2018 1:09.177 119.693 Michael Goodman
McLaren 570S GT4
May 17, 2023 1:20.057 103.426 Dave Seats
May 17, 2023 1:20.057 103.426 Dave Seats
May 17, 2023 1:20.064 103.417 Brody Gunter
May 17, 2023 1:20.064 103.417 Brody Gunter
May 17, 2023 1:20.483 102.879 Robert Henry6
McLaren MP4-12C GT3
Nov 13, 2017 1:12.913 113.560 Bruno do Carmo
Mar 24, 2016 1:14.006 111.883 Joseph Maher
Oct 1, 2015 1:14.085 111.764 Tony Lamberti
Nov 13, 2017 1:14.142 111.678 Hercules L. Santos
Nov 13, 2017 1:14.278 111.473 Jose Pinho
Mercedes-AMG GT3 2020
Nov 18, 2023 1:15.247 110.038 Jason Hertel
Oct 5, 2023 1:15.677 109.412 Steven Allen3
Nov 18, 2023 1:18.2086 105.871 Kody Huddleston
Mercedes-AMG GT4
May 17, 2023 1:20.581 102.754 Calvin Levy
May 17, 2023 1:20.581 102.754 Calvin Levy
Feb 11, 2024 1:23.8664 98.728 Ricky Taylor
Feb 11, 2024 1:24.5843 97.891 Max Angelelli
Feb 11, 2024 1:25.1793 97.207 Jon Fogarty
NASCAR Truck Chevrolet Silverado
May 17, 2023 1:19.950 103.565 Ethan Fonseca Moreno
May 17, 2023 1:19.9504 103.564 Blaze McKinney
May 17, 2023 1:19.9965 103.505 Riley Marabello
May 17, 2023 1:20.3585 103.038 Arron Brown
May 17, 2023 1:21.2711 101.881 Shane DiMantova
NASCAR Truck Ford F150
May 17, 2023 1:20.4196 102.960 Hayes Booth
NASCAR Truck Toyota Tundra TRD Pro
May 17, 2023 1:19.1202 104.651 A.J. Stravato
May 17, 2023 1:21.6293 101.434 John O Lynch
May 17, 2023 1:21.8052 101.216 Angel L Delgado
Nissan GTP ZX-T
Mar 26, 2022 1:05.181 127.031 Laust Olsen
Mar 26, 2022 1:05.195 127.004 Timothy Vaughan
Mar 26, 2022 1:05.221 126.953 Julen Martínez Pastor
Mar 26, 2022 1:05.236 126.924 Ferran S. Grau
Mar 26, 2022 1:05.236 126.924 Ferran S. Grau
Porsche 718 Cayman GT4 Clubsport MR
May 17, 2023 1:20.750 102.539 Johnny Alford
May 17, 2023 1:20.750 102.539 Johnny Alford
May 17, 2023 1:21.013 102.206 Dalton Kilroe
May 17, 2023 1:21.013 102.206 Dalton Kilroe
May 17, 2023 1:21.200 101.970 Mike Pepper2
Porsche 911 GT3 R (992)
Feb 5, 2024 1:15.1083 110.241 Derek Moore4
Oct 5, 2023 1:15.2355 110.054 Chris J Miller
Oct 5, 2023 1:15.4776 109.701 Michael Hutcheson2
Feb 5, 2024 1:15.5433 109.606 Alex Wiggins
Oct 5, 2023 1:15.5443 109.605 Brandon Harrison
Porsche 911 RSR
Jan 3, 2024 1:11.2523 116.207 Sean Dickinson
Jan 3, 2024 1:11.3835 115.993 Noah Andersen
Jan 3, 2024 1:11.7111 115.463 Joshua Spears2
Jan 3, 2024 1:11.9783 115.035 Eric C Fox
Aug 9, 2021 1:12.5209 114.174 Nicholas Sanchez2
Radical SR8
Jul 11, 2010 1:13.526 112.613 Andy Kirschetorte
Jul 11, 2010 1:14.345 111.373 Julian Williams
Oct 24, 2010 1:14.469 111.187 Juan Rodriguez
Oct 24, 2010 1:14.862 110.604 James Prostell Jr.
Jul 11, 2010 1:15.052 110.324 Wim Bries
Ray FF1600
May 12, 2024 1:25.9807 96.301 Zac Fuller
May 12, 2024 1:26.4847 95.739 Ben Coultes
Mar 20, 2024 1:26.6659 95.539 Lauren Russo
Mar 20, 2024 1:26.6659 95.539 Lauren Russo
Mar 20, 2024 1:26.6659 95.539 Lauren Russo
Ruf RT 12R Track
Mar 24, 2016 1:12.716 113.868 Jesper Drlicka
Mar 24, 2016 1:12.892 113.593 Amjed Yamin
Oct 6, 2015 1:13.187 113.135 Rodrigo Baronio
Oct 6, 2015 1:13.394 112.816 Adriano S Pinheiro
Oct 6, 2015 1:13.431 112.759 Murilo Faria
Skip Barber Formula 2000
Apr 18, 2016 1:29.462 92.553 Fahim Antoniades
Apr 18, 2016 1:29.510 92.504 Benny Simonsen
Aug 22, 2016 1:29.524 92.489 Benny Simonsen
Aug 22, 2016 1:29.569 92.443 Nathan Davies
Apr 18, 2016 1:29.717 92.290 Stuart Adcock
Super Late Model
Jun 11, 2023 1:18.115 105.998 Zach Millett
Jun 11, 2023 1:19.105 104.671 Parker Collins
Jun 11, 2023 1:19.572 104.057 Jonny Rapp
Jun 11, 2023 1:20.059 103.424 Jason Duckworth
Jun 11, 2023 1:20.098 103.373 Joseph Tucker
Supercars Ford Mustang GT
Nov 2, 2023 1:13.656 112.414 Kenneth latter
Nov 2, 2023 1:13.8411 112.133 Matt van der Kraan
Nov 2, 2023 1:13.8917 112.056 Darryn Lobb
Nov 2, 2023 1:14.0135 111.871 Michael Stewart5
Nov 2, 2023 1:14.0655 111.793 Damon Fisher
Supercars Holden ZB Commodore
Nov 2, 2023 1:13.7324 112.298 Michael Talijancich
Nov 2, 2023 1:13.8025 112.191 Troy Stonestreet
Nov 2, 2023 1:13.9244 112.006 Kristian Smart
Nov 2, 2023 1:13.9703 111.937 Bruce Tannock
Nov 2, 2023 1:13.9953 111.899 Tim Nicol
Toyota GR86
Mar 13, 2024 1:32.4743 89.538 Jason Heaney
Mar 13, 2024 1:32.6054 89.412 Joshua O'Bryon
Mar 13, 2024 1:33.0317 89.002 Edwin J James
Mar 13, 2024 1:34.8261 87.318 Trevor Binns
Mar 13, 2024 1:35.6879 86.531 Marc Ouellette
VW Jetta TDI Cup
Jun 20, 2020 1:31.988 90.012 Bill Sulouff
Jun 20, 2020 1:32.021 89.979 Michael Snow7
Jun 21, 2020 1:32.049 89.952 Bill Sulouff
Jun 20, 2020 1:32.077 89.925 Selin M Rollan
Jun 21, 2020 1:32.201 89.804 Felix Borodaty
Williams-Toyota FW31
Mar 10, 2011 1:01.013 135.709 Les Turner
Mar 10, 2011 1:01.033 135.664 Reed Rundell
Mar 10, 2011 1:01.238 135.210 Andrew Gantman
Mar 10, 2011 1:01.277 135.124 Terry McCuin
Mar 10, 2011 1:01.349 134.966 Jim Albertson
[Legacy] Audi R8 LMS GT3
Nov 1, 2017 1:12.450 114.286 Brett Hender
Nov 13, 2017 1:13.296 112.967 Ailton Andrade
Nov 13, 2017 1:13.371 112.851 Erick Goldner
Mar 24, 2016 1:13.736 112.293 Clark Archer
Mar 24, 2016 1:13.960 111.952 Larry Ford
[Legacy] BMW Z4 GT3
Nov 13, 2017 1:13.254 113.031 Leo Bonilha
Mar 24, 2016 1:14.078 111.774 Mark Jubinski
Oct 6, 2015 1:14.216 111.566 Neto Nascimento
Oct 6, 2015 1:14.474 111.180 Cleber A. Toffoli
Oct 6, 2015 1:14.582 111.019 Marcos Vescovi
[Legacy] Dallara DW12
Dec 10, 2014 1:06.714 124.112 Taylor Hurst
Dec 10, 2014 1:07.325 122.986 Kyle Hollies
Oct 22, 2014 1:07.388 122.871 Selin M Rollan
Dec 10, 2014 1:07.784 122.153 Sarosh Chaudhry
Oct 22, 2014 1:08.027 121.716 Jerry MacDonald
[Legacy] Dallara IR-05
Mar 12, 2013 1:19.395 104.289 Marty Jefferies
[Legacy] Ferrari 488 GT3
Nov 1, 2017 1:12.609 114.035 Mark A Rayner
Nov 1, 2017 1:12.751 113.813 David Jellings
Nov 1, 2017 1:12.917 113.554 Scott Cislowski
Nov 1, 2017 1:13.110 113.254 TJ Brown
Nov 7, 2018 1:13.235 113.061 Leif Peterson
[Legacy] Mazda MX-5 Cup - 2010
May 4, 2015 1:33.263 88.781 Brian Bennett5
May 25, 2013 1:33.292 88.754 James Stevenson
Sep 8, 2012 1:33.437 88.616 James Stevenson
May 25, 2013 1:33.701 88.366 Antti Tuominen
Sep 8, 2012 1:33.736 88.333 Giancarlo Lenzi
[Legacy] Mercedes-AMG GT3
Nov 1, 2017 1:11.800 115.320 Anthony Winkelman
Nov 1, 2017 1:11.874 115.202 Ross Rizzo
Nov 1, 2017 1:11.941 115.094 Trent Thomas
Nov 1, 2017 1:12.087 114.861 Jeremy Franklin2
Nov 1, 2017 1:12.104 114.834 Martin Szilvassy
[Legacy] Porsche 911 GT3 Cup (991)
Feb 11, 2019 1:17.804 106.421 Kevan Bingel2
Feb 11, 2019 1:17.804 106.421 Kevan Bingel2
Feb 11, 2019 1:17.967 106.199 Patrick Lindsey
Feb 11, 2019 1:17.967 106.199 Patrick Lindsey
Feb 11, 2019 1:17.972 106.192 Kyle Pokrefky
[Legacy] Porsche 911 GT3 R
Feb 26, 2022 1:15.622 109.492 Micheal P Blackner
Feb 12, 2022 1:15.793 109.245 Jay Van Meppelen
Feb 12, 2022 1:15.793 109.245 Jay Van Meppelen
Aug 13, 2021 1:16.103 108.800 Carolus Theel
[Legacy] Pro Mazda
Feb 26, 2012 1:14.647 110.922 Todd Galvin
Oct 21, 2010 1:14.797 110.700 Reed Rundell
Feb 26, 2012 1:14.980 110.429 M Keulemans
Oct 21, 2010 1:15.007 110.390 Les Turner
Oct 21, 2010 1:15.136 110.200 Terry McCuin
[Legacy] Riley MkXX Daytona Prototype - 2008
Apr 1, 2012 1:10.370 117.664 Paul D Smith
Sep 23, 2012 1:10.561 117.345 Paul D Smith
Apr 1, 2012 1:10.660 117.181 Troy Watson
Mar 17, 2012 1:10.887 116.806 Michael N Adams
Oct 23, 2013 1:11.321 116.095 John Hastings